Time;durP1;ratioP1;P1;durP2;ratioP2;P2;SDS_P1;SDS_P2;PMS_P1;PMS_P2;Temp;Humidity;BMP_temperature;BMP_pressure;BME280_temperature;BME280_humidity;BME280_pressure;Samples;Min_cycle;Max_cycle;Signal;HPM_P1;HPM_P2
2022/04/17 00:01:26;;;;;;;;;;;;;;;0.91;60.50;97344.38;6375907;27;19924;-64
2022/04/17 00:04:27;;;;;;;;;;;;;;;0.93;60.10;97346.94;6357272;27;19924;-64
2022/04/17 00:07:28;;;;;;;;;;;;;;;0.92;60.41;97350.41;6375785;27;19972;-65
2022/04/17 00:10:30;;;;;;;;;;;;;;;0.97;59.89;97346.00;6375666;27;19927;-65
2022/04/17 00:13:31;;;;;;;;;;;;;;;0.99;59.93;97349.41;6374732;27;20299;-64
2022/04/17 00:16:32;;;;;;;;;;;;;;;0.95;60.46;97365.91;6374643;27;19923;-65
2022/04/17 00:19:35;;;;;;;;;;;;;;;1.06;60.35;97353.59;6375365;27;19927;-65
2022/04/17 00:22:36;;;;;;;;;;;;;;;1.05;60.37;97357.94;6374534;27;20392;-64
2022/04/17 00:25:43;;;;;;;;;;;;;;;1.00;60.43;97362.34;6357750;27;19931;-64
2022/04/17 00:28:45;;;;;;;;;;;;;;;0.98;60.46;97365.84;6374472;27;19942;-64
2022/04/17 00:31:48;;;;;;;;;;;;;;;0.92;61.07;97376.31;6375186;27;20023;-64
2022/04/17 00:34:51;;;;;;;;;;;;;;;0.84;60.57;97373.88;6375096;27;19923;-64
2022/04/17 00:37:53;;;;;;;;;;;;;;;0.75;61.15;97371.44;6373659;27;20276;-65
2022/04/17 00:40:54;;;;;;;;;;;;;;;0.65;61.97;97378.50;6374808;27;19923;-64
2022/04/17 00:43:57;;;;;;;;;;;;;;;0.57;61.78;97385.59;6374745;27;19962;-64
2022/04/17 00:46:58;;;;;;;;;;;;;;;0.51;61.49;97385.66;6373950;27;19930;-64
2022/04/17 00:50:02;;;;;;;;;;;;;;;0.41;61.73;97384.97;6373860;27;19924;-64
2022/04/17 00:53:04;;;;;;;;;;;;;;;0.36;62.01;97392.81;6373678;27;19929;-64
2022/04/17 00:56:06;;;;;;;;;;;;;;;0.33;61.62;97385.09;6374516;27;19923;-65
2022/04/17 00:59:09;;;;;;;;;;;;;;;0.27;62.16;97385.19;6355769;27;20030;-65
2022/04/17 01:02:11;;;;;;;;;;;;;;;0.21;61.90;97390.47;6373145;27;20339;-65
2022/04/17 01:05:15;;;;;;;;;;;;;;;0.22;62.86;97394.75;6373874;27;19965;-64
2022/04/17 01:08:17;;;;;;;;;;;;;;;0.24;62.34;97393.00;6354991;27;20285;-64
2022/04/17 01:11:18;;;;;;;;;;;;;;;0.26;62.28;97395.59;6373318;27;19923;-63
2022/04/17 01:14:20;;;;;;;;;;;;;;;0.25;63.35;97394.69;6373256;27;20417;-64
2022/04/17 01:17:22;;;;;;;;;;;;;;;0.31;62.78;97394.63;6373047;27;19977;-65
2022/04/17 01:20:25;;;;;;;;;;;;;;;0.34;62.57;97393.69;6372647;27;19963;-65
2022/04/17 01:26:58;;;;;;;;;;;;;;;0.32;61.56;97411.00;6373533;27;19927;-64
2022/04/17 01:30:03;;;;;;;;;;;;;;;0.33;61.25;97407.53;6373649;27;19924;-64
2022/04/17 01:33:04;;;;;;;;;;;;;;;0.37;60.63;97415.25;6372482;27;20295;-64
2022/04/17 01:36:05;;;;;;;;;;;;;;;0.44;60.81;97426.34;6373181;27;20304;-65
2022/04/17 01:39:09;;;;;;;;;;;;;;;0.46;59.76;97423.75;6372354;27;19923;-64
2022/04/17 01:42:11;;;;;;;;;;;;;;;0.42;60.24;97425.50;6372362;27;19927;-65
2022/04/17 01:45:14;;;;;;;;;;;;;;;0.37;60.71;97417.81;6373237;27;19923;-65
2022/04/17 01:48:17;;;;;;;;;;;;;;;0.38;60.93;97422.13;6372175;27;19930;-64
2022/04/17 01:51:21;;;;;;;;;;;;;;;0.41;60.82;97431.56;6373178;27;19927;-65
2022/04/17 01:54:28;;;;;;;;;;;;;;;0.45;60.09;97428.03;6373101;27;19927;-66
2022/04/17 01:57:31;;;;;;;;;;;;;;;0.47;60.54;97434.06;6373014;27;20291;-64
2022/04/17 02:00:32;;;;;;;;;;;;;;;0.54;60.19;97437.41;6372131;27;19930;-64
2022/04/17 02:03:33;;;;;;;;;;;;;;;0.62;60.00;97430.34;6372493;27;20444;-64
2022/04/17 02:06:34;;;;;;;;;;;;;;;0.69;60.08;97434.56;6371556;27;19927;-64
2022/04/17 02:09:35;;;;;;;;;;;;;;;0.74;59.77;97435.34;6371738;27;19976;-64
2022/04/17 02:12:39;;;;;;;;;;;;;;;0.80;60.30;97440.44;6372727;27;19965;-64
2022/04/17 02:15:42;;;;;;;;;;;;;;;0.88;59.72;97438.56;6371711;27;20296;-64
2022/04/17 02:18:46;;;;;;;;;;;;;;;0.96;60.47;97445.34;6372580;27;19923;-65
2022/04/17 02:21:48;;;;;;;;;;;;;;;1.06;59.26;97441.72;6371486;27;19923;-65
2022/04/17 02:24:48;;;;;;;;;;;;;;;1.12;58.97;97446.78;6372076;27;20014;-64
2022/04/17 02:27:50;;;;;;;;;;;;;;;1.18;59.01;97445.81;6353888;27;20342;-64
2022/04/17 02:30:51;;;;;;;;;;;;;;;1.25;58.69;97458.63;6371383;27;19923;-64
2022/04/17 02:33:55;;;;;;;;;;;;;;;1.33;59.18;97456.75;6372253;27;19924;-66
2022/04/17 02:36:55;;;;;;;;;;;;;;;1.45;59.95;97460.00;6371192;27;19930;-64
2022/04/17 02:40:02;;;;;;;;;;;;;;;1.56;59.29;97455.47;6372197;27;19925;-64
2022/04/17 02:43:04;;;;;;;;;;;;;;;1.66;58.82;97453.53;6371342;27;19923;-64
2022/04/17 02:46:07;;;;;;;;;;;;;;;1.75;58.63;97459.38;6371898;27;19923;-65
2022/04/17 02:49:12;;;;;;;;;;;;;;;1.90;57.73;97459.97;6371951;27;19923;-64
2022/04/17 02:52:13;;;;;;;;;;;;;;;2.05;57.04;97461.38;6370795;27;19924;-64
2022/04/17 02:55:18;;;;;;;;;;;;;;;2.20;57.42;97455.84;6371738;27;19923;-63
2022/04/17 02:58:21;;;;;;;;;;;;;;;2.34;57.29;97463.31;6370884;27;19946;-63
2022/04/17 03:08:09;;;;;;;;;;;;;;;2.72;56.95;97466.75;6371646;28;19923;-65
2022/04/17 03:11:13;;;;;;;;;;;;;;;2.89;56.82;97451.63;6370719;28;20000;-63
2022/04/17 03:14:16;;;;;;;;;;;;;;;2.93;56.72;97468.84;6371336;28;20392;-64
2022/04/17 03:17:17;;;;;;;;;;;;;;;2.99;56.79;97468.69;6370703;28;19924;-65
2022/04/17 03:20:20;;;;;;;;;;;;;;;3.14;56.75;97468.31;6371335;28;19923;-65
2022/04/17 03:23:21;;;;;;;;;;;;;;;3.17;56.96;97466.50;6370803;28;19930;-65
2022/04/17 03:26:25;;;;;;;;;;;;;;;3.25;56.85;97464.56;6371151;28;20370;-65
2022/04/17 03:29:26;;;;;;;;;;;;;;;3.31;56.77;97464.38;6370530;28;19930;-64
2022/04/17 03:32:31;;;;;;;;;;;;;;;3.41;56.41;97458.06;6370559;28;20308;-65
2022/04/17 03:35:33;;;;;;;;;;;;;;;3.48;56.30;97462.22;6370837;28;19923;-64
2022/04/17 03:38:34;;;;;;;;;;;;;;;3.55;56.09;97465.50;6370765;28;20281;-65
2022/04/17 03:41:35;;;;;;;;;;;;;;;3.59;55.74;97465.38;6370647;28;19924;-65
2022/04/17 03:44:36;;;;;;;;;;;;;;;3.68;55.37;97468.59;6370436;28;19930;-64
2022/04/17 03:47:38;;;;;;;;;;;;;;;3.75;55.40;97464.94;6370358;28;19923;-64
2022/04/17 03:50:40;;;;;;;;;;;;;;;3.75;55.20;97471.00;6370165;28;20277;-66
2022/04/17 03:53:42;;;;;;;;;;;;;;;3.88;54.88;97468.91;6369076;28;19926;-64
2022/04/17 03:56:47;;;;;;;;;;;;;;;3.94;54.51;97470.47;6370980;28;20454;-65
2022/04/17 03:59:48;;;;;;;;;;;;;;;4.03;54.56;97465.84;6351762;28;19923;-64
2022/04/17 04:02:52;;;;;;;;;;;;;;;4.02;54.28;97468.50;6371979;27;19985;-65
2022/04/17 04:05:53;;;;;;;;;;;;;;;4.23;53.89;97461.81;6374617;27;19923;-66
2022/04/17 04:08:54;;;;;;;;;;;;;;;4.25;53.76;97460.00;6374845;27;19930;-64
2022/04/17 04:11:55;;;;;;;;;;;;;;;4.31;53.72;97459.81;6374454;27;20404;-65
2022/04/17 04:14:57;;;;;;;;;;;;;;;4.37;53.50;97475.25;6374509;27;20308;-66
2022/04/17 04:18:00;;;;;;;;;;;;;;;4.51;53.53;97467.03;6374921;27;19976;-66
2022/04/17 04:21:01;;;;;;;;;;;;;;;4.60;53.13;97468.47;6374711;27;19924;-64
2022/04/17 04:24:03;;;;;;;;;;;;;;;4.80;52.20;97468.69;6374314;27;19930;-65
2022/04/17 04:30:26;;;;;;;;;;;;;;;4.88;52.23;97471.06;6374292;27;20404;-65
2022/04/17 04:33:27;;;;;;;;;;;;;;;5.03;51.74;97474.91;6374159;27;19970;-65
2022/04/17 04:36:28;;;;;;;;;;;;;;;5.11;51.65;97475.50;6374327;27;19924;-64
2022/04/17 04:39:29;;;;;;;;;;;;;;;5.26;51.04;97464.56;6374255;27;19923;-64
2022/04/17 04:42:32;;;;;;;;;;;;;;;5.36;50.48;97471.16;6373822;27;20419;-64
2022/04/17 04:52:16;;;;;;;;;;;;;;;5.63;50.37;97466.75;6373670;27;20335;-64
2022/04/17 04:55:22;;;;;;;;;;;;;;;5.85;49.96;97474.63;6374393;27;20016;-64
2022/04/17 04:58:23;;;;;;;;;;;;;;;6.05;49.34;97473.09;6373385;27;19923;-65
2022/04/17 05:01:24;;;;;;;;;;;;;;;6.19;49.18;97476.03;6373328;27;20592;-65
2022/04/17 05:04:29;;;;;;;;;;;;;;;6.35;48.76;97478.09;6372944;27;19923;-64
2022/04/17 05:07:33;;;;;;;;;;;;;;;6.54;48.33;97471.25;6373663;27;19923;-66
2022/04/17 05:10:34;;;;;;;;;;;;;;;6.73;48.25;97472.19;6374197;27;19930;-64
2022/04/17 05:13:35;;;;;;;;;;;;;;;7.05;48.04;97477.03;6372680;27;20491;-65
2022/04/17 05:16:38;;;;;;;;;;;;;;;9.43;44.53;97475.75;6373050;27;19924;-65
2022/04/17 05:19:40;;;;;;;;;;;;;;;15.20;36.21;97482.28;6373842;27;19923;-65
2022/04/17 05:22:41;;;;;;;;;;;;;;;20.32;28.35;97496.97;6373906;27;19942;-65
2022/04/17 05:25:44;;;;;;;;;;;;;;;24.46;26.59;97511.75;6372583;27;19931;-65
2022/04/17 05:28:50;;;;;;;;;;;;;;;27.88;24.92;97511.72;6373518;27;19923;-65
2022/04/17 05:31:52;;;;;;;;;;;;;;;30.59;22.57;97510.44;6372849;27;19923;-65
2022/04/17 05:34:55;;;;;;;;;;;;;;;33.05;21.31;97515.28;6373115;27;19924;-64
2022/04/17 05:38:01;;;;;;;;;;;;;;;35.33;18.67;97518.88;6373301;27;19927;-65
2022/04/17 05:41:04;;;;;;;;;;;;;;;36.74;18.36;97512.69;6372015;27;19930;-64
2022/04/17 05:44:07;;;;;;;;;;;;;;;37.58;16.31;97506.97;6371731;27;20274;-65
2022/04/17 05:47:11;;;;;;;;;;;;;;;38.22;11.19;97506.25;6371843;27;19977;-66
2022/04/17 05:50:13;;;;;;;;;;;;;;;39.42;17.54;97507.59;6371827;27;20068;-65
2022/04/17 05:53:14;;;;;;;;;;;;;;;39.13;16.30;97504.44;6371806;27;19923;-66
2022/04/17 05:56:18;;;;;;;;;;;;;;;39.07;16.96;97500.81;6372524;27;19930;-66
2022/04/17 05:59:24;;;;;;;;;;;;;;;40.00;16.36;97502.78;6372630;27;19927;-65
2022/04/17 06:02:27;;;;;;;;;;;;;;;40.51;15.42;97497.31;6371877;27;20424;-65
2022/04/17 06:05:30;;;;;;;;;;;;;;;41.28;15.54;97495.22;6372469;27;20026;-66
2022/04/17 06:08:34;;;;;;;;;;;;;;;41.93;14.08;97499.91;6372602;27;19923;-66
2022/04/17 06:11:38;;;;;;;;;;;;;;;42.60;7.59;97492.69;6372415;27;19927;-65
2022/04/17 06:14:44;;;;;;;;;;;;;;;43.20;12.83;97495.16;6354226;27;19923;-65
2022/04/17 06:17:51;;;;;;;;;;;;;;;43.76;12.50;97490.81;6371615;27;20568;-65
2022/04/17 06:20:57;;;;;;;;;;;;;;;44.02;7.02;97487.69;6372124;27;20396;-66
2022/04/17 06:24:00;;;;;;;;;;;;;;;44.52;7.18;97486.03;6353380;27;19930;-65
2022/04/17 06:27:06;;;;;;;;;;;;;;;44.75;10.49;97487.03;6370667;27;19923;-65
2022/04/17 06:30:14;;;;;;;;;;;;;;;45.01;10.06;97481.81;6372159;27;19923;-65
2022/04/17 06:33:18;;;;;;;;;;;;;;;45.29;10.55;97481.00;6371944;27;19931;-65
2022/04/17 06:36:22;;;;;;;;;;;;;;;45.74;10.10;97481.94;6371295;27;19927;-65
2022/04/17 06:39:24;;;;;;;;;;;;;;;45.91;9.74;97481.31;6370901;27;20015;-65
2022/04/17 06:42:25;;;;;;;;;;;;;;;46.14;8.90;97474.59;6370657;27;19923;-66
2022/04/17 06:45:29;;;;;;;;;;;;;;;45.67;8.72;97478.81;6371534;27;19970;-65
2022/04/17 06:48:33;;;;;;;;;;;;;;;45.33;7.99;97470.91;6370778;27;20317;-65
2022/04/17 06:51:35;;;;;;;;;;;;;;;45.66;9.09;97471.56;6371265;27;20011;-65
2022/04/17 06:54:40;;;;;;;;;;;;;;;45.87;5.61;97474.72;6371431;27;19924;-65
2022/04/17 06:57:47;;;;;;;;;;;;;;;46.29;8.13;97469.84;6370261;27;19930;-66
2022/04/17 07:00:56;;;;;;;;;;;;;;;45.14;8.28;97463.53;6352731;27;20261;-66
2022/04/17 07:04:05;;;;;;;;;;;;;;;44.50;8.21;97454.97;6371118;27;19927;-65
2022/04/17 07:07:09;;;;;;;;;;;;;;;44.72;7.94;97450.72;6371276;27;20363;-65
2022/04/17 07:10:14;;;;;;;;;;;;;;;45.04;7.92;97447.88;6370712;28;20403;-65
2022/04/17 07:13:21;;;;;;;;;;;;;;;44.81;7.66;97460.81;6353748;28;19928;-65
2022/04/17 07:16:25;;;;;;;;;;;;;;;45.11;7.43;97455.78;6370223;28;19923;-65
2022/04/17 07:19:31;;;;;;;;;;;;;;;44.86;6.73;97456.28;6371106;28;19923;-65
2022/04/17 07:22:33;;;;;;;;;;;;;;;45.44;7.33;97458.44;6369826;28;19947;-65
2022/04/17 07:25:36;;;;;;;;;;;;;;;46.08;6.74;97463.94;6370376;28;20406;-66
2022/04/17 07:28:46;;;;;;;;;;;;;;;45.81;6.37;97454.56;6371464;28;20387;-65
2022/04/17 07:31:55;;;;;;;;;;;;;;;45.66;7.20;97447.38;6370563;28;19923;-66
2022/04/17 07:34:57;;;;;;;;;;;;;;;46.26;6.74;97437.88;6370173;28;20311;-65
2022/04/17 07:37:59;;;;;;;;;;;;;;;46.79;6.37;97439.00;6371808;27;19934;-66
2022/04/17 07:41:05;;;;;;;;;;;;;;;47.15;6.50;97451.94;6376226;27;19923;-65
2022/04/17 07:44:11;;;;;;;;;;;;;;;47.31;6.45;97452.28;6376032;27;19924;-66
2022/04/17 07:47:16;;;;;;;;;;;;;;;47.28;6.16;97450.16;6376147;27;19930;-66
2022/04/17 07:50:21;;;;;;;;;;;;;;;47.19;6.04;97445.38;6375839;27;19923;-64
2022/04/17 07:53:31;;;;;;;;;;;;;;;47.22;5.69;97453.13;6375655;27;19923;-65
2022/04/17 07:56:39;;;;;;;;;;;;;;;47.04;4.99;97445.84;6375449;27;19923;-65
2022/04/17 07:59:41;;;;;;;;;;;;;;;47.00;5.90;97445.66;6374906;27;20022;-65
2022/04/17 08:02:53;;;;;;;;;;;;;;;46.72;5.76;97439.47;6375544;27;19923;-65
2022/04/17 08:05:57;;;;;;;;;;;;;;;44.08;6.09;97426.31;6374662;27;20432;-65
2022/04/17 08:09:00;;;;;;;;;;;;;;;42.60;6.75;97425.47;6356414;27;20297;-66
2022/04/17 08:12:02;;;;;;;;;;;;;;;42.06;6.88;97421.00;6375523;27;20295;-66
2022/04/17 08:15:04;;;;;;;;;;;;;;;42.08;6.33;97414.06;6374830;27;20029;-65
2022/04/17 08:18:06;;;;;;;;;;;;;;;42.74;6.67;97415.38;6375198;27;20021;-65
2022/04/17 08:21:09;;;;;;;;;;;;;;;43.56;6.40;97417.13;6375497;27;20396;-65
2022/04/17 08:24:13;;;;;;;;;;;;;;;43.54;6.31;97408.25;6375269;27;19934;-65
2022/04/17 08:27:14;;;;;;;;;;;;;;;42.81;6.50;97404.78;6374126;27;19923;-65
2022/04/17 08:30:22;;;;;;;;;;;;;;;42.04;6.00;97406.66;6375162;27;20418;-65
2022/04/17 08:33:24;;;;;;;;;;;;;;;38.99;7.14;97389.34;6374273;27;20319;-65
2022/04/17 08:36:27;;;;;;;;;;;;;;;36.88;7.75;97387.81;6374740;27;19924;-66
2022/04/17 08:39:31;;;;;;;;;;;;;;;36.02;8.74;97390.13;6373907;27;20304;-66
2022/04/17 08:42:32;;;;;;;;;;;;;;;36.39;8.12;97390.44;6373462;27;19926;-66
2022/04/17 08:45:33;;;;;;;;;;;;;;;37.32;8.34;97387.81;6373756;27;19923;-65
2022/04/17 08:48:37;;;;;;;;;;;;;;;38.36;8.06;97402.16;6373446;27;19923;-65
2022/04/17 08:51:38;;;;;;;;;;;;;;;39.11;7.07;97402.84;6373001;27;19925;-65
2022/04/17 08:54:43;;;;;;;;;;;;;;;39.60;7.30;97409.88;6373514;27;19924;-65
2022/04/17 08:57:44;;;;;;;;;;;;;;;40.10;6.72;97409.09;6373013;27;19931;-65
2022/04/17 09:00:48;;;;;;;;;;;;;;;39.55;6.89;97410.72;6374066;27;19923;-65
2022/04/17 09:03:52;;;;;;;;;;;;;;;40.57;6.74;97413.47;6373496;27;19930;-65
2022/04/17 09:06:54;;;;;;;;;;;;;;;41.85;6.41;97415.63;6372933;27;19928;-66
2022/04/17 09:10:03;;;;;;;;;;;;;;;42.75;5.79;97417.06;6373574;27;20296;-66
2022/04/17 09:13:07;;;;;;;;;;;;;;;43.41;5.88;97411.78;6373176;27;20289;-65
2022/04/17 09:16:12;;;;;;;;;;;;;;;43.59;5.87;97408.22;6373018;27;19923;-65
2022/04/17 09:19:16;;;;;;;;;;;;;;;43.21;6.19;97397.09;6373159;27;19955;-65
2022/04/17 09:22:20;;;;;;;;;;;;;;;42.62;5.93;97390.06;6372953;27;19930;-65
2022/04/17 09:25:26;;;;;;;;;;;;;;;41.40;6.14;97378.91;6373620;27;19923;-65
2022/04/17 09:28:32;;;;;;;;;;;;;;;40.81;6.33;97388.84;6372476;27;19942;-65
2022/04/17 09:31:38;;;;;;;;;;;;;;;40.44;6.46;97380.94;6373695;27;19923;-66
2022/04/17 09:34:42;;;;;;;;;;;;;;;40.47;6.61;97380.38;6373620;27;19953;-66
2022/04/17 09:37:43;;;;;;;;;;;;;;;41.01;6.46;97378.81;6372333;27;19928;-64
2022/04/17 09:40:49;;;;;;;;;;;;;;;41.58;6.50;97391.22;6373180;27;19923;-66
2022/04/17 09:43:53;;;;;;;;;;;;;;;42.06;6.49;97379.53;6372312;27;20293;-65
2022/04/17 09:46:58;;;;;;;;;;;;;;;42.38;5.38;97379.81;6372204;27;20352;-65
2022/04/17 09:50:03;;;;;;;;;;;;;;;42.25;6.14;97385.16;6372078;27;20433;-65
2022/04/17 09:53:06;;;;;;;;;;;;;;;41.19;6.03;97382.88;6372142;27;19929;-66
2022/04/17 09:56:10;;;;;;;;;;;;;;;40.55;6.42;97371.53;6372633;27;19924;-66
2022/04/17 09:59:18;;;;;;;;;;;;;;;40.85;6.49;97369.78;6372075;27;20989;-65
2022/04/17 10:02:23;;;;;;;;;;;;;;;40.79;6.14;97357.13;6372018;27;20412;-64
2022/04/17 10:05:26;;;;;;;;;;;;;;;40.36;6.55;97359.44;6371603;27;20064;-65
2022/04/17 10:08:31;;;;;;;;;;;;;;;39.00;6.96;97341.47;6372216;27;19923;-65
2022/04/17 10:11:32;;;;;;;;;;;;;;;38.46;6.92;97349.22;6371940;27;20013;-65
2022/04/17 10:14:39;;;;;;;;;;;;;;;37.68;7.66;97341.47;6372254;27;19923;-66
2022/04/17 10:17:45;;;;;;;;;;;;;;;37.44;7.42;97333.56;6372041;27;19969;-65
2022/04/17 10:20:47;;;;;;;;;;;;;;;37.12;7.98;97327.22;6371250;27;20007;-65
2022/04/17 10:23:53;;;;;;;;;;;;;;;36.88;7.68;97326.66;6371561;27;20076;-64
2022/04/17 10:26:54;;;;;;;;;;;;;;;36.20;8.36;97319.47;6352779;27;20039;-66
2022/04/17 10:30:06;;;;;;;;;;;;;;;36.13;8.46;97323.50;6372229;27;19930;-64
2022/04/17 10:33:22;;;;;;;;;;;;;;;36.66;8.05;97319.31;6372033;27;19984;-66
2022/04/17 10:36:32;;;;;;;;;;;;;;;35.95;8.25;97310.88;6371906;27;19924;-66
2022/04/17 10:39:36;;;;;;;;;;;;;;;35.54;8.41;97307.47;6371936;27;20392;-66
2022/04/17 10:42:56;;;;;;;;;;;;;;;34.96;9.13;97303.16;6372112;27;20045;-65
2022/04/17 10:46:06;;;;;;;;;;;;;;;34.47;9.20;97302.72;6371889;27;20296;-66
2022/04/17 10:49:09;;;;;;;;;;;;;;;34.54;9.23;97296.03;6371845;27;20380;-65
2022/04/17 10:52:24;;;;;;;;;;;;;;;35.05;8.99;97293.50;6370407;27;20056;-66
2022/04/17 10:55:27;;;;;;;;;;;;;;;34.55;9.18;97294.13;6371544;27;19930;-66
2022/04/17 10:58:37;;;;;;;;;;;;;;;33.64;9.67;97288.31;6371615;27;19927;-65
2022/04/17 11:01:41;;;;;;;;;;;;;;;32.89;10.40;97275.97;6371516;27;19934;-65
2022/04/17 11:04:53;;;;;;;;;;;;;;;32.27;10.76;97264.41;6370354;27;19962;-65
2022/04/17 11:08:14;;;;;;;;;;;;;;;32.56;10.29;97271.84;6371223;27;20299;-65
2022/04/17 11:11:16;;;;;;;;;;;;;;;32.97;10.21;97266.66;6371826;27;19930;-66
2022/04/17 11:14:22;;;;;;;;;;;;;;;33.21;10.07;97267.59;6379977;27;19930;-65
2022/04/17 11:17:27;;;;;;;;;;;;;;;32.85;10.29;97256.53;6379912;27;19973;-66
2022/04/17 11:20:29;;;;;;;;;;;;;;;32.49;10.25;97249.28;6379673;27;19930;-65
2022/04/17 11:23:53;;;;;;;;;;;;;;;32.08;10.94;97242.66;6379669;27;20035;-65
2022/04/17 11:26:57;;;;;;;;;;;;;;;31.80;11.15;97239.59;6368060;27;19923;-65
2022/04/17 11:30:03;;;;;;;;;;;;;;;30.76;11.56;97245.44;6379170;27;19923;-65
2022/04/17 11:33:09;;;;;;;;;;;;;;;29.30;12.72;97232.31;6379495;27;19924;-64
2022/04/17 11:36:13;;;;;;;;;;;;;;;29.64;12.51;97224.97;6379671;27;19923;-65
2022/04/17 11:39:25;;;;;;;;;;;;;;;30.31;12.01;97231.06;6361126;27;19924;-64
2022/04/17 11:42:29;;;;;;;;;;;;;;;29.91;12.39;97215.72;6379215;27;19920;-66
2022/04/17 11:45:30;;;;;;;;;;;;;;;30.45;11.90;97220.97;6378189;27;20063;-66
2022/04/17 11:48:33;;;;;;;;;;;;;;;29.75;12.32;97222.47;6379409;27;19919;-66
2022/04/17 11:51:44;;;;;;;;;;;;;;;28.83;13.12;97217.88;6378197;27;19945;-64
2022/04/17 11:54:53;;;;;;;;;;;;;;;28.24;13.27;97213.16;6378273;27;19944;-65
2022/04/17 11:57:57;;;;;;;;;;;;;;;27.75;13.78;97205.00;6379237;27;19955;-66
2022/04/17 12:00:59;;;;;;;;;;;;;;;27.39;13.96;97198.97;6378904;27;19923;-66
2022/04/17 12:04:00;;;;;;;;;;;;;;;27.12;14.10;97198.75;6378304;27;19923;-67
2022/04/17 12:07:04;;;;;;;;;;;;;;;26.95;13.84;97203.59;6379144;27;19924;-66
2022/04/17 12:10:07;;;;;;;;;;;;;;;26.68;14.05;97199.81;6379255;27;20392;-66
2022/04/17 12:13:28;;;;;;;;;;;;;;;26.57;14.46;97193.06;6378283;27;19924;-65
2022/04/17 12:16:29;;;;;;;;;;;;;;;26.12;14.49;97200.44;6378085;27;20304;-65
2022/04/17 12:19:33;;;;;;;;;;;;;;;25.54;14.98;97194.06;6379048;27;20018;-65
2022/04/17 12:22:37;;;;;;;;;;;;;;;24.91;15.56;97192.66;6378402;27;20313;-66
2022/04/17 12:25:39;;;;;;;;;;;;;;;24.53;15.83;97196.16;6373713;27;19946;-67
2022/04/17 12:28:40;;;;;;;;;;;;;;;24.41;15.85;97202.94;6374026;27;19930;-64
2022/04/17 12:31:41;;;;;;;;;;;;;;;24.39;16.04;97204.97;6374291;27;19923;-66
2022/04/17 12:34:46;;;;;;;;;;;;;;;24.01;16.65;97207.56;6373810;27;20345;-66
2022/04/17 12:37:50;;;;;;;;;;;;;;;23.20;17.32;97204.09;6374782;27;20311;-65
2022/04/17 12:40:51;;;;;;;;;;;;;;;22.14;18.18;97195.97;6374416;27;19927;-68
2022/04/17 12:43:53;;;;;;;;;;;;;;;21.72;18.47;97199.53;6355536;27;20449;-65
2022/04/17 12:47:08;;;;;;;;;;;;;;;21.98;18.55;97202.97;6374869;27;20376;-66
2022/04/17 12:50:16;;;;;;;;;;;;;;;21.64;18.71;97194.13;6374831;27;20457;-65
2022/04/17 12:53:20;;;;;;;;;;;;;;;21.63;18.72;97198.66;6374638;27;20018;-65
2022/04/17 12:56:27;;;;;;;;;;;;;;;21.67;18.69;97196.50;6374035;27;19923;-64
2022/04/17 12:59:45;;;;;;;;;;;;;;;21.43;18.97;97203.41;6355690;27;19923;-66
2022/04/17 13:02:49;;;;;;;;;;;;;;;21.11;19.27;97187.13;6373744;27;19919;-64
2022/04/17 13:05:59;;;;;;;;;;;;;;;20.95;19.22;97188.72;6373784;27;19924;-65
2022/04/17 13:09:13;;;;;;;;;;;;;;;20.84;19.57;97191.63;6355643;27;20388;-67
2022/04/17 13:12:28;;;;;;;;;;;;;;;20.29;20.39;97191.78;6372608;27;19923;-64
2022/04/17 13:15:33;;;;;;;;;;;;;;;19.87;20.59;97192.34;6372839;27;20436;-65
2022/04/17 13:18:34;;;;;;;;;;;;;;;19.70;20.79;97192.19;6372903;27;20024;-66
2022/04/17 13:21:35;;;;;;;;;;;;;;;19.15;21.52;97197.44;6373529;27;19923;-65
2022/04/17 13:24:36;;;;;;;;;;;;;;;18.73;21.97;97192.44;6373359;27;19919;-66
2022/04/17 13:27:38;;;;;;;;;;;;;;;18.23;22.48;97189.94;6373553;27;20380;-65
2022/04/17 13:30:41;;;;;;;;;;;;;;;17.92;22.94;97182.06;6373583;27;19931;-65
2022/04/17 13:33:47;;;;;;;;;;;;;;;17.80;23.16;97183.13;6372335;27;19958;-65
2022/04/17 13:38:11;;;;;;;;;;;;;;;17.20;23.98;97184.88;6372313;27;19928;-65
2022/04/17 13:40:12;;;;;;;;;;;;;;;16.86;24.48;97177.16;6373350;27;19999;-66
2022/04/17 13:43:16;;;;;;;;;;;;;;;16.46;24.74;97180.50;6372992;27;19924;-64
2022/04/17 13:46:20;;;;;;;;;;;;;;;16.49;24.94;97176.75;6354346;27;20327;-65
2022/04/17 13:49:23;;;;;;;;;;;;;;;16.42;25.28;97172.91;6372910;27;19923;-66
2022/04/17 13:52:25;;;;;;;;;;;;;;;16.12;25.31;97177.97;6372931;27;19924;-65
2022/04/17 13:55:28;;;;;;;;;;;;;;;16.19;25.57;97182.78;6372863;27;19923;-65
2022/04/17 13:58:31;;;;;;;;;;;;;;;16.01;25.59;97180.69;6372628;27;19924;-65
2022/04/17 14:01:32;;;;;;;;;;;;;;;15.85;26.10;97180.22;6371996;27;19923;-65
2022/04/17 14:04:34;;;;;;;;;;;;;;;15.75;26.72;97184.63;6371929;27;20402;-65
2022/04/17 14:07:36;;;;;;;;;;;;;;;15.43;26.99;97180.91;6372438;27;19930;-64
2022/04/17 14:10:38;;;;;;;;;;;;;;;15.25;27.39;97177.88;6353209;27;19946;-65
2022/04/17 14:13:42;;;;;;;;;;;;;;;15.34;27.95;97186.06;6372626;27;20007;-65
2022/04/17 14:16:43;;;;;;;;;;;;;;;15.06;28.25;97188.25;6353517;27;20338;-64
2022/04/17 14:19:46;;;;;;;;;;;;;;;14.66;28.44;97190.47;6372198;27;19930;-65
2022/04/17 14:22:50;;;;;;;;;;;;;;;14.48;28.83;97190.88;6371990;27;19929;-65
2022/04/17 14:25:51;;;;;;;;;;;;;;;14.56;28.98;97195.63;6352214;27;19927;-65
2022/04/17 14:28:52;;;;;;;;;;;;;;;14.23;29.00;97194.53;6371179;27;20526;-66
2022/04/17 14:31:55;;;;;;;;;;;;;;;13.95;29.20;97194.88;6372105;27;20026;-65
2022/04/17 14:34:56;;;;;;;;;;;;;;;13.81;29.60;97191.44;6371286;27;20388;-66
2022/04/17 14:38:02;;;;;;;;;;;;;;;13.82;30.21;97193.13;6371838;27;20312;-65
2022/04/17 14:41:05;;;;;;;;;;;;;;;13.54;30.38;97196.09;6371445;27;19923;-65
2022/04/17 14:44:09;;;;;;;;;;;;;;;13.35;30.49;97194.75;6371905;27;19923;-65
2022/04/17 14:47:15;;;;;;;;;;;;;;;13.23;30.38;97198.22;6371283;27;19924;-65
2022/04/17 14:50:17;;;;;;;;;;;;;;;13.11;30.86;97207.03;6371625;27;19923;-65
2022/04/17 14:53:18;;;;;;;;;;;;;;;13.01;30.56;97205.00;6371124;27;19923;-65
2022/04/17 14:56:21;;;;;;;;;;;;;;;12.90;30.75;97202.25;6371596;27;19927;-65
2022/04/17 14:59:25;;;;;;;;;;;;;;;12.84;31.11;97207.97;6371682;27;19924;-65
2022/04/17 15:02:26;;;;;;;;;;;;;;;12.73;31.08;97215.78;6370315;27;20519;-64
2022/04/17 15:05:30;;;;;;;;;;;;;;;12.57;31.29;97219.47;6371495;27;19924;-65
2022/04/17 15:08:36;;;;;;;;;;;;;;;12.62;31.46;97223.56;6370906;27;20345;-65
2022/04/17 15:11:40;;;;;;;;;;;;;;;12.45;31.78;97222.06;6371288;28;20396;-65
2022/04/17 15:14:44;;;;;;;;;;;;;;;12.22;31.70;97231.50;6371295;28;19933;-65
2022/04/17 15:17:44;;;;;;;;;;;;;;;12.06;31.62;97226.41;6370379;28;19930;-64
2022/04/17 15:20:48;;;;;;;;;;;;;;;12.08;32.10;97224.50;6371067;28;19924;-66
2022/04/17 15:23:49;;;;;;;;;;;;;;;12.05;32.49;97230.81;6370391;28;19923;-65
2022/04/17 15:26:55;;;;;;;;;;;;;;;11.83;32.34;97227.84;6371337;28;19927;-66
2022/04/17 15:29:56;;;;;;;;;;;;;;;11.79;32.76;97240.38;6371137;28;20648;-66
2022/04/17 15:32:57;;;;;;;;;;;;;;;11.64;32.65;97234.28;6369750;28;19963;-65
2022/04/17 15:36:03;;;;;;;;;;;;;;;11.60;32.83;97239.84;6370328;28;19927;-65
2022/04/17 15:39:07;;;;;;;;;;;;;;;11.67;33.01;97244.66;6371031;28;19949;-65
2022/04/17 15:42:08;;;;;;;;;;;;;;;11.55;33.09;97242.78;6371124;28;19923;-65
2022/04/17 15:48:37;;;;;;;;;;;;;;;11.39;33.43;97247.31;6371157;28;19924;-64
2022/04/17 15:51:38;;;;;;;;;;;;;;;11.37;33.66;97249.19;6351651;28;19931;-65
2022/04/17 15:54:41;;;;;;;;;;;;;;;11.40;34.21;97249.84;6371048;28;20299;-65
2022/04/17 15:57:45;;;;;;;;;;;;;;;11.37;34.40;97254.47;6371040;27;19923;-64
2022/04/17 16:00:47;;;;;;;;;;;;;;;11.37;35.01;97254.47;6357227;27;19923;-66
2022/04/17 16:03:50;;;;;;;;;;;;;;;11.20;35.07;97253.72;6375484;27;19923;-64
2022/04/17 16:06:52;;;;;;;;;;;;;;;11.11;35.34;97249.00;6374700;27;19931;-64
2022/04/17 16:09:55;;;;;;;;;;;;;;;11.15;35.87;97252.28;6375366;27;20265;-65
2022/04/17 16:12:59;;;;;;;;;;;;;;;10.90;35.74;97266.09;6374673;27;19931;-65
2022/04/17 16:16:02;;;;;;;;;;;;;;;10.86;36.43;97261.97;6375448;27;20388;-65
2022/04/17 16:19:04;;;;;;;;;;;;;;;10.76;36.37;97259.88;6374278;27;19930;-66
2022/04/17 16:22:05;;;;;;;;;;;;;;;10.64;36.13;97257.97;6375345;27;19984;-65
2022/04/17 16:25:07;;;;;;;;;;;;;;;10.53;36.17;97263.00;6356405;27;19923;-65
2022/04/17 16:28:12;;;;;;;;;;;;;;;10.58;36.91;97260.97;6375113;27;19923;-65